createdAt,value
2018-12-09T00:00:33.793Z,16.27
2018-12-09T00:01:08.787Z,15.60
2018-12-09T00:01:43.216Z,15.40
2018-12-09T00:02:17.209Z,18.20
2018-12-09T00:02:51.443Z,21.27
2018-12-09T00:03:25.383Z,14.33
2018-12-09T00:03:59.230Z,13.00
2018-12-09T00:04:33.070Z,17.60
2018-12-09T00:05:07.174Z,17.63
2018-12-09T00:05:40.995Z,17.57
2018-12-09T00:06:15.032Z,16.97
2018-12-09T00:06:49.555Z,17.20
2018-12-09T00:07:23.431Z,15.97
2018-12-09T00:07:59.255Z,18.83
2018-12-09T00:08:33.174Z,16.83
2018-12-09T00:09:07.392Z,20.90
2018-12-09T00:09:41.193Z,12.70
2018-12-09T00:10:15.470Z,16.40
2018-12-09T00:10:49.494Z,17.77
2018-12-09T00:11:23.241Z,21.17
2018-12-09T00:11:57.074Z,17.20
2018-12-09T00:12:30.918Z,18.43
2018-12-09T00:13:04.774Z,16.93
2018-12-09T00:13:38.765Z,15.67
2018-12-09T00:14:12.738Z,17.00
2018-12-09T00:14:46.526Z,14.70
2018-12-09T00:15:20.523Z,18.27
2018-12-09T00:15:54.411Z,21.47
2018-12-09T00:16:31.302Z,13.03
2018-12-09T00:17:05.683Z,15.67
2018-12-09T00:17:39.461Z,13.40
2018-12-09T00:18:13.402Z,15.47
2018-12-09T00:18:47.186Z,12.43
2018-12-09T00:19:21.041Z,13.00
2018-12-09T00:19:54.889Z,14.17
2018-12-09T00:20:28.877Z,19.00
2018-12-09T00:21:02.754Z,13.03
2018-12-09T00:21:36.858Z,14.87
2018-12-09T00:22:11.670Z,14.90
2018-12-09T00:22:45.742Z,14.20
2018-12-09T00:23:19.638Z,18.17
2018-12-09T00:23:53.702Z,17.07
2018-12-09T00:24:27.634Z,14.43
2018-12-09T00:25:01.485Z,13.27
2018-12-09T00:25:35.362Z,19.17
2018-12-09T00:26:09.355Z,16.40
2018-12-09T00:26:43.301Z,18.93
2018-12-09T00:27:17.306Z,18.13
2018-12-09T00:27:51.263Z,19.13
2018-12-09T00:28:27.261Z,18.30
2018-12-09T00:29:00.983Z,14.60
2018-12-09T00:29:35.009Z,15.93
2018-12-09T00:30:11.236Z,19.13
2018-12-09T00:30:45.333Z,17.57
2018-12-09T00:31:19.311Z,16.67
2018-12-09T00:31:53.113Z,15.90
2018-12-09T00:32:27.051Z,17.07
2018-12-09T00:33:00.890Z,17.10
2018-12-09T00:33:34.895Z,15.10
2018-12-09T00:34:09.091Z,13.57
2018-12-09T00:34:44.518Z,12.23
2018-12-09T00:35:18.649Z,18.30
2018-12-09T00:35:52.750Z,10.43
2018-12-09T00:36:27.421Z,16.10
2018-12-09T00:37:01.434Z,21.23
2018-12-09T00:37:35.491Z,15.03
2018-12-09T00:38:10.338Z,14.80
2018-12-09T00:38:44.200Z,18.17
2018-12-09T00:39:18.779Z,18.80
2018-12-09T00:39:52.776Z,17.63
2018-12-09T00:40:26.765Z,16.70
2018-12-09T00:41:01.430Z,14.57
2018-12-09T00:41:35.385Z,16.13
2018-12-09T00:42:09.328Z,13.00
2018-12-09T00:42:45.194Z,13.27
2018-12-09T00:43:19.075Z,16.27
2018-12-09T00:43:52.857Z,15.57
2018-12-09T00:44:26.740Z,16.23
2018-12-09T00:45:00.657Z,17.33
2018-12-09T00:45:34.566Z,15.27
2018-12-09T00:46:09.712Z,14.53
2018-12-09T00:46:43.741Z,18.37
2018-12-09T00:47:17.626Z,16.40
2018-12-09T00:47:51.670Z,14.17
2018-12-09T00:48:25.857Z,14.77
2018-12-09T00:48:59.784Z,15.80
2018-12-09T00:49:33.661Z,14.93
2018-12-09T00:50:07.516Z,17.17
2018-12-09T00:50:41.243Z,14.67
2018-12-09T00:51:15.231Z,16.93
2018-12-09T00:51:49.138Z,16.90
2018-12-09T00:52:23.008Z,18.03
2018-12-09T00:52:57.265Z,21.07
2018-12-09T00:53:31.156Z,17.63
2018-12-09T00:54:05.075Z,13.57
2018-12-09T00:54:38.937Z,15.13
2018-12-09T00:55:53.771Z,14.10
2018-12-09T00:56:27.547Z,18.90
2018-12-09T00:57:01.517Z,14.33
2018-12-09T00:57:36.516Z,17.73
2018-12-09T00:58:10.681Z,15.13
2018-12-09T00:58:44.543Z,16.10
2018-12-09T00:59:18.811Z,15.63
2018-12-09T00:59:52.799Z,17.07
2018-12-09T01:00:26.766Z,14.20
2018-12-09T01:01:00.837Z,14.67
2018-12-09T01:01:34.591Z,15.37
2018-12-09T01:02:08.560Z,18.47
2018-12-09T01:02:43.021Z,14.33
2018-12-09T01:03:17.170Z,17.13
2018-12-09T01:03:50.969Z,16.70
2018-12-09T01:04:24.859Z,15.87
2018-12-09T01:04:58.636Z,22.53
2018-12-09T01:05:32.518Z,17.20
2018-12-09T01:06:06.490Z,16.53
2018-12-09T01:06:40.445Z,14.80
2018-12-09T01:07:14.302Z,21.90
2018-12-09T01:07:48.278Z,16.93
2018-12-09T01:08:22.126Z,16.43
2018-12-09T01:08:56.029Z,20.70
2018-12-09T01:09:30.081Z,18.53
2018-12-09T01:10:04.871Z,18.80
2018-12-09T01:10:38.799Z,18.73
2018-12-09T01:11:12.908Z,16.40
2018-12-09T01:11:46.659Z,19.50
2018-12-09T01:12:20.740Z,22.10
2018-12-09T01:12:55.717Z,22.27
2018-12-09T01:13:29.670Z,20.00
2018-12-09T01:14:03.718Z,21.77
2018-12-09T01:14:37.719Z,17.90
2018-12-09T01:15:11.909Z,22.03
2018-12-09T01:15:45.866Z,20.00
2018-12-09T01:16:20.110Z,20.70
2018-12-09T01:16:54.068Z,21.10
2018-12-09T01:17:27.925Z,21.10
2018-12-09T01:18:01.844Z,21.77
2018-12-09T01:18:35.671Z,21.77
2018-12-09T01:19:09.731Z,20.07
2018-12-09T01:19:43.555Z,21.37
2018-12-09T01:20:17.510Z,15.30
2018-12-09T01:20:51.363Z,21.83
2018-12-09T01:21:25.165Z,18.80
2018-12-09T01:21:59.179Z,20.97
2018-12-09T01:22:33.101Z,19.13
2018-12-09T01:23:06.901Z,24.43
2018-12-09T01:23:41.203Z,17.50
2018-12-09T01:24:15.034Z,15.53
2018-12-09T01:24:48.829Z,18.00
2018-12-09T01:25:22.779Z,23.20
2018-12-09T01:25:56.666Z,25.50
2018-12-09T01:26:30.755Z,19.37
2018-12-09T01:27:04.740Z,20.70
2018-12-09T01:27:38.530Z,18.90
2018-12-09T01:28:12.306Z,20.50
2018-12-09T01:28:46.155Z,19.53
2018-12-09T01:29:20.284Z,23.57
2018-12-09T01:29:54.198Z,18.27
2018-12-09T01:30:28.269Z,17.60
2018-12-09T01:31:02.110Z,16.47
2018-12-09T01:31:35.980Z,17.87
2018-12-09T01:32:09.861Z,16.73
2018-12-09T01:32:43.988Z,19.57
2018-12-09T01:33:18.096Z,21.20
2018-12-09T01:33:54.334Z,19.80
2018-12-09T01:34:28.360Z,20.37
2018-12-09T01:35:02.313Z,17.48
2018-12-09T01:35:36.413Z,21.85
2018-12-09T01:36:10.470Z,18.30
2018-12-09T01:36:44.223Z,17.93
2018-12-09T01:37:18.460Z,20.70
2018-12-09T01:37:52.459Z,15.10
2018-12-09T01:38:26.517Z,17.17
2018-12-09T01:39:00.938Z,15.60
2018-12-09T01:39:34.918Z,19.03
2018-12-09T01:40:09.257Z,16.40
2018-12-09T01:40:48.795Z,14.70
2018-12-09T01:41:22.682Z,21.00
2018-12-09T01:41:57.042Z,15.17
2018-12-09T01:42:30.873Z,18.23
2018-12-09T01:43:06.821Z,19.60
2018-12-09T01:43:40.584Z,17.15
2018-12-09T01:44:14.451Z,19.67
2018-12-09T01:44:48.230Z,22.00
2018-12-09T01:45:22.158Z,20.13
2018-12-09T01:45:56.178Z,18.55
2018-12-09T01:46:30.006Z,20.87
2018-12-09T01:47:03.988Z,16.37
2018-12-09T01:47:37.782Z,20.07
2018-12-09T01:48:14.982Z,17.53
2018-12-09T01:48:55.427Z,18.43
2018-12-09T01:49:29.310Z,18.57
2018-12-09T01:50:03.410Z,17.30
2018-12-09T01:50:37.233Z,13.07
2018-12-09T01:51:11.251Z,15.43
2018-12-09T01:51:45.010Z,19.92
2018-12-09T01:52:18.939Z,19.40
2018-12-09T01:52:59.395Z,19.23
2018-12-09T01:54:37.360Z,18.32
2018-12-09T01:55:11.369Z,19.10
2018-12-09T01:55:45.387Z,16.20
2018-12-09T01:56:19.350Z,23.23
2018-12-09T01:56:53.862Z,18.70
2018-12-09T01:57:27.761Z,17.42
2018-12-09T01:58:01.662Z,15.03
2018-12-09T01:58:35.565Z,19.90
2018-12-09T01:59:09.616Z,17.73
2018-12-09T01:59:43.565Z,16.67
2018-12-09T02:00:17.549Z,19.40
2018-12-09T02:00:51.315Z,19.10
2018-12-09T02:01:25.361Z,20.48
2018-12-09T02:01:59.560Z,13.80
2018-12-09T02:02:33.401Z,17.73
2018-12-09T02:03:07.395Z,21.13
2018-12-09T02:03:41.375Z,14.20
2018-12-09T02:04:15.985Z,16.05
2018-12-09T02:04:49.874Z,17.48
2018-12-09T02:05:24.003Z,16.65
2018-12-09T02:05:57.811Z,18.05
2018-12-09T02:06:31.892Z,14.63
2018-12-09T02:07:05.709Z,16.52
2018-12-09T02:07:39.769Z,16.57
2018-12-09T02:08:13.596Z,18.32
2018-12-09T02:08:47.593Z,18.97
2018-12-09T02:09:21.406Z,21.10
2018-12-09T02:09:55.302Z,17.12
2018-12-09T02:10:29.199Z,13.68
2018-12-09T02:11:03.077Z,14.07
2018-12-09T02:11:37.145Z,16.97
2018-12-09T02:12:11.105Z,14.53
2018-12-09T02:12:45.148Z,15.50
2018-12-09T02:13:19.343Z,18.17
2018-12-09T02:13:53.170Z,15.43
2018-12-09T02:14:27.095Z,13.65
2018-12-09T02:15:01.106Z,13.72
2018-12-09T02:15:35.056Z,18.32
2018-12-09T02:16:08.951Z,15.60
2018-12-09T02:16:42.882Z,14.53
2018-12-09T02:17:16.932Z,16.40
2018-12-09T02:17:51.058Z,16.07
2018-12-09T02:18:24.865Z,17.87
2018-12-09T02:19:17.714Z,18.43
2018-12-09T02:19:51.701Z,20.48
2018-12-09T02:20:25.638Z,24.47
2018-12-09T02:20:59.565Z,17.92
2018-12-09T02:21:33.581Z,14.95
2018-12-09T02:22:07.456Z,18.63
2018-12-09T02:22:41.248Z,16.93
2018-12-09T02:23:15.149Z,15.17
2018-12-09T02:23:49.106Z,13.77
2018-12-09T02:24:23.291Z,15.37
2018-12-09T02:24:57.205Z,18.10
2018-12-09T02:25:31.105Z,18.67
2018-12-09T02:26:05.234Z,18.77
2018-12-09T02:26:39.071Z,24.15
2018-12-09T02:27:13.028Z,18.87
2018-12-09T02:27:51.081Z,19.40
2018-12-09T02:28:25.225Z,15.75
2018-12-09T02:28:59.191Z,20.02
2018-12-09T02:29:33.157Z,16.05
2018-12-09T02:30:07.156Z,17.25
2018-12-09T02:30:41.167Z,16.23
2018-12-09T02:31:15.278Z,21.37
2018-12-09T02:31:49.161Z,17.37
2018-12-09T02:32:23.104Z,17.57
2018-12-09T02:32:57.259Z,16.60
2018-12-09T02:33:31.710Z,11.97
2018-12-09T02:34:06.008Z,12.70
2018-12-09T02:34:51.726Z,15.27
2018-12-09T02:35:25.600Z,15.15
2018-12-09T02:35:59.358Z,16.23
2018-12-09T02:36:33.337Z,13.18
2018-12-09T02:37:07.498Z,14.05
2018-12-09T02:37:41.585Z,15.27
2018-12-09T02:38:15.471Z,16.80
2018-12-09T02:38:49.841Z,13.77
2018-12-09T02:39:23.931Z,18.02
2018-12-09T02:39:57.759Z,14.35
2018-12-09T02:40:31.757Z,14.85
2018-12-09T02:41:05.600Z,14.87
2018-12-09T02:41:46.395Z,15.32
2018-12-09T02:42:20.263Z,11.17
2018-12-09T02:42:54.107Z,11.37
2018-12-09T02:43:28.094Z,10.97
2018-12-09T02:44:02.004Z,10.55
2018-12-09T02:44:35.875Z,9.30
2018-12-09T02:45:09.843Z,11.15
2018-12-09T02:45:46.022Z,9.60
2018-12-09T02:46:19.910Z,5.60
2018-12-09T02:46:54.133Z,7.55
2018-12-09T02:47:28.038Z,7.00
2018-12-09T02:48:02.456Z,7.72
2018-12-09T02:48:36.413Z,4.58
2018-12-09T02:49:10.490Z,5.10
2018-12-09T02:49:44.709Z,4.72
2018-12-09T02:50:18.573Z,4.22
2018-12-09T02:50:52.410Z,5.55
2018-12-09T02:51:26.418Z,5.22
2018-12-09T02:52:00.479Z,7.75
2018-12-09T02:52:34.417Z,5.20
2018-12-09T02:53:08.538Z,5.97
2018-12-09T02:53:42.248Z,4.17
2018-12-09T02:54:16.142Z,6.28
2018-12-09T02:54:49.946Z,8.55
2018-12-09T02:55:23.728Z,7.17
2018-12-09T02:55:57.735Z,7.50
2018-12-09T02:56:31.762Z,6.30
2018-12-09T02:57:05.569Z,8.45
2018-12-09T02:57:39.526Z,8.00
2018-12-09T02:58:13.409Z,6.77
2018-12-09T02:58:47.326Z,5.87
2018-12-09T02:59:21.124Z,6.60
2018-12-09T02:59:55.230Z,10.25
2018-12-09T03:00:29.083Z,10.28
2018-12-09T03:01:03.065Z,12.33
2018-12-09T03:01:36.992Z,12.47
2018-12-09T03:02:10.804Z,12.17
2018-12-09T03:02:44.766Z,9.60
2018-12-09T03:03:18.804Z,10.63
2018-12-09T03:03:52.534Z,12.43
2018-12-09T03:04:26.482Z,10.30
2018-12-09T03:05:00.400Z,8.38
2018-12-09T03:05:34.469Z,10.43
2018-12-09T03:06:08.309Z,14.47
2018-12-09T03:06:42.052Z,13.35
2018-12-09T03:07:15.898Z,12.37
2018-12-09T03:07:49.894Z,15.75
2018-12-09T03:08:23.959Z,11.30
2018-12-09T03:08:57.835Z,13.80
2018-12-09T03:09:31.720Z,12.25
2018-12-09T03:10:05.984Z,15.10
2018-12-09T03:10:39.986Z,15.58
2018-12-09T03:11:14.190Z,14.60
2018-12-09T03:11:48.117Z,15.13
2018-12-09T03:12:21.821Z,12.73
2018-12-09T03:12:55.855Z,14.35
2018-12-09T03:13:29.635Z,16.35
2018-12-09T03:14:03.611Z,17.07
2018-12-09T03:14:37.587Z,15.10
2018-12-09T03:15:11.690Z,17.42
2018-12-09T03:15:45.604Z,17.07
2018-12-09T03:16:19.578Z,14.00
2018-12-09T03:16:53.581Z,14.70
2018-12-09T03:17:27.502Z,16.27
2018-12-09T03:18:01.445Z,13.95
2018-12-09T03:18:35.317Z,13.98
2018-12-09T03:19:09.190Z,18.32
2018-12-09T03:19:43.057Z,14.87
2018-12-09T03:20:17.035Z,14.10
2018-12-09T03:20:50.999Z,15.20
2018-12-09T03:21:24.951Z,16.57
2018-12-09T03:21:58.991Z,16.82
2018-12-09T03:22:32.953Z,19.12
2018-12-09T03:23:06.936Z,17.40
2018-12-09T03:23:41.152Z,16.25
2018-12-09T03:24:15.419Z,14.07
2018-12-09T03:24:49.669Z,12.65
2018-12-09T03:25:23.619Z,15.38
2018-12-09T03:25:57.803Z,13.30
2018-12-09T03:26:32.065Z,13.83
2018-12-09T03:27:06.376Z,17.52
2018-12-09T03:27:40.311Z,18.65
2018-12-09T03:28:14.257Z,16.32
2018-12-09T03:28:48.346Z,19.05
2018-12-09T03:29:22.163Z,15.70
2018-12-09T03:29:56.104Z,16.75
2018-12-09T03:30:30.102Z,15.28
2018-12-09T03:31:04.037Z,18.52
2018-12-09T03:31:38.043Z,14.75
2018-12-09T03:32:11.986Z,14.65
2018-12-09T03:32:46.100Z,16.57
2018-12-09T03:33:20.041Z,12.85
2018-12-09T03:33:53.940Z,14.30
2018-12-09T03:34:31.153Z,13.65
2018-12-09T03:35:05.721Z,10.00
2018-12-09T03:35:39.719Z,12.35
2018-12-09T03:36:13.652Z,12.33
2018-12-09T03:36:47.439Z,10.95
2018-12-09T03:37:21.211Z,6.75
2018-12-09T03:37:55.257Z,10.10
2018-12-09T03:38:29.377Z,10.82
2018-12-09T03:39:05.321Z,8.18
2018-12-09T03:39:39.178Z,8.90
2018-12-09T03:40:13.153Z,7.55
2018-12-09T03:40:47.158Z,10.85
2018-12-09T03:41:20.984Z,9.78
2018-12-09T03:41:54.903Z,6.85
2018-12-09T03:42:29.266Z,5.15
2018-12-09T03:43:03.775Z,9.38
2018-12-09T03:43:37.671Z,7.60
2018-12-09T03:44:11.580Z,9.03
2018-12-09T03:44:45.358Z,7.92
2018-12-09T03:45:19.195Z,9.65
2018-12-09T03:45:56.692Z,5.58
2018-12-09T03:46:30.896Z,6.83
2018-12-09T03:47:05.173Z,8.35
2018-12-09T03:47:39.412Z,7.45
2018-12-09T03:48:13.537Z,7.97
2018-12-09T03:48:47.631Z,8.35
2018-12-09T03:49:21.676Z,8.75
2018-12-09T03:49:55.586Z,11.57
2018-12-09T03:50:29.587Z,6.95
2018-12-09T03:51:03.560Z,5.97
2018-12-09T03:51:37.908Z,6.20
2018-12-09T03:52:12.104Z,4.08
2018-12-09T03:52:46.431Z,5.78
2018-12-09T03:53:20.216Z,9.15
2018-12-09T03:53:54.322Z,7.37
2018-12-09T03:54:28.228Z,5.30
2018-12-09T03:55:02.697Z,6.25
2018-12-09T03:55:36.576Z,5.85
2018-12-09T03:56:10.633Z,6.53
2018-12-09T03:56:44.458Z,5.37
2018-12-09T03:57:18.498Z,5.50
2018-12-09T03:57:52.420Z,7.85
2018-12-09T03:58:28.160Z,5.42
2018-12-09T03:59:02.160Z,6.95
2018-12-09T03:59:36.123Z,5.40
2018-12-09T04:00:09.953Z,4.30
2018-12-09T04:00:43.909Z,4.12
2018-12-09T04:01:17.785Z,5.87
2018-12-09T04:01:51.905Z,5.92
2018-12-09T04:02:25.757Z,6.55
2018-12-09T04:02:59.630Z,6.30
2018-12-09T04:03:33.658Z,5.12
2018-12-09T04:04:07.694Z,5.10
2018-12-09T04:04:41.555Z,4.45
2018-12-09T04:05:15.870Z,3.45
2018-12-09T04:05:49.897Z,5.22
2018-12-09T04:06:23.900Z,5.42
2018-12-09T04:06:57.843Z,7.75
2018-12-09T04:07:31.848Z,5.03
2018-12-09T04:08:05.978Z,6.78
2018-12-09T04:08:40.115Z,4.70
2018-12-09T04:09:14.214Z,4.53
2018-12-09T04:09:48.189Z,7.17
2018-12-09T04:10:22.319Z,4.87
2018-12-09T04:10:56.269Z,6.25
2018-12-09T04:11:30.145Z,3.60
2018-12-09T04:12:04.162Z,4.65
2018-12-09T04:12:38.022Z,4.30
2018-12-09T04:13:12.079Z,4.37
2018-12-09T04:13:46.137Z,4.70
2018-12-09T04:14:20.070Z,4.72
2018-12-09T04:14:54.108Z,6.58
2018-12-09T04:15:28.284Z,4.67
2018-12-09T04:16:02.162Z,3.25
2018-12-09T04:16:36.182Z,3.75
2018-12-09T04:17:10.166Z,3.47
2018-12-09T04:17:43.825Z,6.53
2018-12-09T04:18:17.791Z,3.58
2018-12-09T04:18:51.999Z,5.42
2018-12-09T04:19:25.910Z,4.50
2018-12-09T04:19:59.991Z,4.67
2018-12-09T04:20:33.885Z,6.55
2018-12-09T04:21:07.678Z,3.47
2018-12-09T04:21:41.518Z,3.80
2018-12-09T04:22:15.716Z,5.15
2018-12-09T04:22:49.506Z,5.58
2018-12-09T04:23:23.265Z,4.12
2018-12-09T04:23:57.222Z,4.80
2018-12-09T04:24:31.006Z,4.50
2018-12-09T04:25:05.015Z,6.92
2018-12-09T04:25:39.054Z,8.33
2018-12-09T04:26:12.931Z,3.77
2018-12-09T04:26:46.881Z,4.20
2018-12-09T04:27:20.810Z,4.25
2018-12-09T04:27:54.743Z,5.25
2018-12-09T04:28:28.579Z,4.25
2018-12-09T04:29:02.568Z,3.62
2018-12-09T04:29:36.591Z,4.42
2018-12-09T04:30:10.628Z,5.45
2018-12-09T04:30:45.353Z,4.55
2018-12-09T04:31:19.204Z,4.45
2018-12-09T04:31:53.536Z,3.83
2018-12-09T04:32:27.581Z,4.90
2018-12-09T04:33:01.750Z,7.50
2018-12-09T04:33:35.687Z,4.92
2018-12-09T04:34:09.863Z,5.08
2018-12-09T04:34:44.014Z,3.40
2018-12-09T04:35:18.239Z,3.35
2018-12-09T04:35:52.023Z,3.95
2018-12-09T04:36:25.927Z,4.22
2018-12-09T04:36:59.655Z,4.22
2018-12-09T04:37:33.747Z,3.98
2018-12-09T04:38:07.582Z,6.15
2018-12-09T04:38:41.755Z,3.60
2018-12-09T04:39:15.750Z,6.92
2018-12-09T04:39:49.819Z,3.98
2018-12-09T04:40:23.798Z,4.10
2018-12-09T04:40:57.763Z,3.45
2018-12-09T04:41:31.729Z,6.35
2018-12-09T04:42:05.764Z,4.92
2018-12-09T04:42:39.591Z,5.28
2018-12-09T04:43:13.354Z,5.12
2018-12-09T04:43:47.246Z,7.17
2018-12-09T04:44:21.177Z,4.37
2018-12-09T04:44:55.203Z,4.25
2018-12-09T04:45:29.032Z,4.60
2018-12-09T04:46:03.130Z,6.47
2018-12-09T04:46:37.076Z,4.58
2018-12-09T04:47:10.886Z,4.37
2018-12-09T04:47:44.892Z,6.55
2018-12-09T04:48:18.709Z,6.50
2018-12-09T04:48:52.612Z,6.90
2018-12-09T04:49:26.432Z,4.05
2018-12-09T04:50:00.772Z,8.10
2018-12-09T04:50:34.673Z,6.05
2018-12-09T04:51:08.492Z,6.53
2018-12-09T04:51:55.203Z,4.17
2018-12-09T04:52:28.909Z,4.47
2018-12-09T04:53:02.840Z,5.67
2018-12-09T04:53:36.648Z,4.83
2018-12-09T04:54:10.633Z,6.37
2018-12-09T04:54:44.495Z,6.67
2018-12-09T04:55:18.357Z,5.58
2018-12-09T04:55:52.284Z,8.73
2018-12-09T04:56:26.437Z,4.25
2018-12-09T04:57:00.261Z,4.62
2018-12-09T04:57:35.022Z,4.15
2018-12-09T04:58:08.973Z,5.35
2018-12-09T04:58:57.398Z,7.03
2018-12-09T04:59:33.294Z,8.58
2018-12-09T05:00:18.478Z,3.85
2018-12-09T05:00:53.925Z,5.37
2018-12-09T05:01:27.838Z,7.17
2018-12-09T05:02:02.186Z,4.83
2018-12-09T05:02:36.251Z,7.35
2018-12-09T05:03:10.676Z,6.22
2018-12-09T05:03:44.579Z,5.30
2018-12-09T05:04:18.837Z,5.92
2018-12-09T05:04:52.663Z,7.53
2018-12-09T05:05:27.044Z,7.42
2018-12-09T05:06:01.184Z,5.42
2018-12-09T05:06:35.639Z,7.70
2018-12-09T05:07:09.556Z,5.08
2018-12-09T05:07:43.960Z,7.12
2018-12-09T05:08:18.014Z,6.67
2018-12-09T05:08:52.123Z,5.35
2018-12-09T05:09:26.321Z,5.10
2018-12-09T05:10:00.189Z,5.22
2018-12-09T05:10:34.078Z,5.67
2018-12-09T05:11:08.255Z,5.97
2018-12-09T05:11:42.393Z,4.15
2018-12-09T05:12:16.579Z,4.70
2018-12-09T05:12:50.454Z,6.83
2018-12-09T05:13:24.370Z,7.03
2018-12-09T05:13:58.344Z,7.03
2018-12-09T05:14:32.196Z,6.20
2018-12-09T05:15:06.561Z,7.17
2018-12-09T05:15:40.246Z,7.45
2018-12-09T05:16:14.133Z,4.60
2018-12-09T05:16:48.114Z,7.03
2018-12-09T05:17:22.118Z,5.53
2018-12-09T05:17:56.017Z,6.80
2018-12-09T05:18:29.778Z,6.10
2018-12-09T05:19:05.479Z,4.67
2018-12-09T05:19:42.054Z,8.10
2018-12-09T05:20:16.068Z,7.70
2018-12-09T05:20:50.067Z,5.87
2018-12-09T05:21:23.988Z,6.37
2018-12-09T05:21:57.884Z,8.08
2018-12-09T05:22:31.682Z,6.85
2018-12-09T05:23:05.639Z,7.12
2018-12-09T05:23:39.545Z,7.40
2018-12-09T05:24:13.482Z,7.37
2018-12-09T05:24:47.333Z,7.33
2018-12-09T05:25:21.253Z,9.33
2018-12-09T05:25:55.160Z,6.62
2018-12-09T05:26:28.994Z,6.80
2018-12-09T05:27:03.156Z,6.20
2018-12-09T05:27:36.954Z,9.78
2018-12-09T05:28:10.907Z,7.00
2018-12-09T05:28:44.887Z,6.00
2018-12-09T05:29:18.842Z,7.20
2018-12-09T05:29:52.598Z,5.87
2018-12-09T05:30:26.458Z,7.20
2018-12-09T05:31:00.316Z,7.45
2018-12-09T05:31:34.124Z,7.17
2018-12-09T05:32:08.146Z,5.70
2018-12-09T05:32:42.294Z,4.75
2018-12-09T05:33:16.285Z,8.18
2018-12-09T05:33:50.253Z,7.35
2018-12-09T05:34:24.114Z,7.28
2018-12-09T05:34:58.162Z,7.47
2018-12-09T05:35:32.195Z,9.90
2018-12-09T05:36:06.355Z,6.30
2018-12-09T05:36:40.392Z,7.25
2018-12-09T05:37:14.386Z,5.05
2018-12-09T05:37:48.256Z,7.45
2018-12-09T05:38:22.097Z,7.83
2018-12-09T05:38:55.976Z,7.12
2018-12-09T05:39:29.899Z,5.97
2018-12-09T05:40:03.901Z,7.95
2018-12-09T05:40:37.835Z,6.00
2018-12-09T05:41:11.739Z,5.12
2018-12-09T05:41:45.726Z,6.45
2018-12-09T05:42:19.684Z,6.15
2018-12-09T05:42:53.491Z,8.83
2018-12-09T05:43:27.538Z,8.68
2018-12-09T05:44:01.458Z,3.98
2018-12-09T05:44:35.385Z,8.33
2018-12-09T05:45:09.194Z,7.05
2018-12-09T05:45:43.674Z,8.13
2018-12-09T05:46:17.825Z,7.12
2018-12-09T05:46:52.232Z,9.58
2018-12-09T05:47:26.049Z,6.25
2018-12-09T05:48:00.463Z,8.68
2018-12-09T05:48:34.354Z,6.78
2018-12-09T05:49:08.401Z,6.10
2018-12-09T05:49:42.245Z,6.20
2018-12-09T05:50:16.542Z,6.60
2018-12-09T05:50:50.308Z,7.75
2018-12-09T05:51:31.602Z,6.40
2018-12-09T05:52:05.336Z,7.83
2018-12-09T05:52:39.397Z,8.53
2018-12-09T05:53:13.305Z,6.90
2018-12-09T05:53:47.085Z,11.93
2018-12-09T05:54:20.879Z,10.58
2018-12-09T05:54:54.968Z,10.38
2018-12-09T05:55:28.920Z,6.53
2018-12-09T05:56:03.015Z,12.05
2018-12-09T05:56:37.108Z,8.50
2018-12-09T05:57:11.145Z,9.58
2018-12-09T05:57:45.067Z,12.07
2018-12-09T05:58:21.127Z,10.03
2018-12-09T05:58:54.954Z,9.05
2018-12-09T05:59:29.045Z,10.80
2018-12-09T06:00:03.790Z,8.93
2018-12-09T06:00:37.671Z,10.68
2018-12-09T06:01:11.907Z,7.47
2018-12-09T06:01:45.802Z,10.32
2018-12-09T06:02:31.190Z,7.75
2018-12-09T06:03:04.879Z,11.05
2018-12-09T06:03:38.666Z,8.13
2018-12-09T06:04:56.656Z,9.97
2018-12-09T06:05:31.364Z,10.05
2018-12-09T06:06:05.200Z,8.68
2018-12-09T06:06:40.257Z,10.70
2018-12-09T06:07:14.210Z,10.10
2018-12-09T06:07:48.095Z,11.80
2018-12-09T06:08:21.918Z,9.55
2018-12-09T06:08:56.039Z,10.05
2018-12-09T06:09:29.943Z,7.65
2018-12-09T06:10:04.482Z,14.00
2018-12-09T06:10:38.207Z,8.80
2018-12-09T06:11:12.110Z,13.32
2018-12-09T06:11:46.184Z,10.08
2018-12-09T06:12:19.925Z,10.58
2018-12-09T06:12:53.875Z,11.75
2018-12-09T06:13:27.734Z,10.55
2018-12-09T06:14:01.686Z,11.65
2018-12-09T06:14:35.403Z,12.93
2018-12-09T06:15:09.460Z,12.75
2018-12-09T06:15:43.542Z,11.28
2018-12-09T06:16:18.039Z,8.20
2018-12-09T06:16:52.107Z,11.12
2018-12-09T06:17:26.170Z,14.07
2018-12-09T06:18:00.271Z,11.68
2018-12-09T06:18:34.271Z,11.73
2018-12-09T06:19:08.255Z,11.57
2018-12-09T06:19:42.131Z,14.40
2018-12-09T06:20:15.955Z,12.28
2018-12-09T06:20:50.018Z,13.78
2018-12-09T06:21:24.209Z,10.50
2018-12-09T06:21:58.203Z,10.48
2018-12-09T06:22:32.113Z,10.25
2018-12-09T06:23:05.942Z,14.03
2018-12-09T06:23:39.798Z,11.50
2018-12-09T06:24:13.655Z,10.90
2018-12-09T06:24:47.771Z,11.45
2018-12-09T06:25:25.190Z,14.13
2018-12-09T06:25:59.399Z,11.12
2018-12-09T06:26:33.264Z,12.18
2018-12-09T06:27:07.072Z,11.38
2018-12-09T06:27:40.917Z,12.95
2018-12-09T06:28:14.830Z,9.45
2018-12-09T06:28:48.900Z,12.75
2018-12-09T06:29:22.893Z,13.58
2018-12-09T06:29:56.771Z,14.98
2018-12-09T06:30:30.762Z,11.25
2018-12-09T06:31:04.662Z,13.48
2018-12-09T06:31:38.659Z,13.72
2018-12-09T06:32:12.644Z,10.08
2018-12-09T06:32:46.653Z,12.70
2018-12-09T06:33:23.665Z,11.78
2018-12-09T06:33:58.001Z,12.53
2018-12-09T06:34:32.916Z,16.55
2018-12-09T06:35:08.171Z,11.68
2018-12-09T06:35:42.360Z,15.88
2018-12-09T06:36:16.106Z,12.10
2018-12-09T06:36:49.990Z,13.95
2018-12-09T06:37:23.759Z,11.73
2018-12-09T06:37:57.663Z,10.72
2018-12-09T06:38:31.434Z,17.10
2018-12-09T06:39:05.582Z,11.68
2018-12-09T06:39:39.510Z,15.55
2018-12-09T06:40:14.887Z,15.88
2018-12-09T06:40:49.316Z,14.38
2018-12-09T06:41:23.250Z,18.80
2018-12-09T06:41:57.169Z,13.88
2018-12-09T06:42:31.218Z,11.97
2018-12-09T06:43:05.111Z,16.05
2018-12-09T06:43:39.041Z,14.60
2018-12-09T06:44:12.954Z,14.80
2018-12-09T06:44:46.938Z,17.32
2018-12-09T06:45:20.824Z,14.93
2018-12-09T06:45:54.916Z,14.60
2018-12-09T06:46:28.773Z,18.37
2018-12-09T06:47:02.597Z,16.30
2018-12-09T06:47:36.585Z,9.93
2018-12-09T06:48:10.799Z,12.37
2018-12-09T06:48:44.659Z,20.60
2018-12-09T06:49:18.517Z,13.43
2018-12-09T06:49:52.410Z,13.95
2018-12-09T06:50:26.399Z,13.85
2018-12-09T06:51:00.134Z,16.57
2018-12-09T06:51:33.961Z,16.75
2018-12-09T06:52:07.840Z,16.90
2018-12-09T06:52:41.775Z,17.00
2018-12-09T06:53:16.256Z,17.40
2018-12-09T06:53:51.967Z,16.23
2018-12-09T06:54:26.389Z,17.48
2018-12-09T06:55:00.363Z,14.38
2018-12-09T06:55:34.215Z,15.00
2018-12-09T06:56:08.074Z,14.58
2018-12-09T06:56:42.466Z,17.92
2018-12-09T06:57:16.474Z,19.73
2018-12-09T06:57:50.229Z,17.20
2018-12-09T06:58:24.055Z,16.73
2018-12-09T06:58:58.037Z,13.62
2018-12-09T06:59:32.068Z,16.55
2018-12-09T07:00:08.110Z,18.27
2018-12-09T07:00:42.306Z,14.83
2018-12-09T07:01:16.313Z,12.85
2018-12-09T07:01:50.170Z,18.95
2018-12-09T07:02:24.070Z,15.43
2018-12-09T07:02:58.061Z,14.90
2018-12-09T07:03:31.857Z,14.95
2018-12-09T07:04:05.958Z,18.02
2018-12-09T07:04:40.755Z,17.30
2018-12-09T07:05:15.385Z,15.38
2018-12-09T07:05:49.613Z,15.65
2018-12-09T07:06:23.715Z,16.10
2018-12-09T07:06:57.514Z,13.32
2018-12-09T07:07:31.414Z,17.52
2018-12-09T07:08:05.237Z,12.28
2018-12-09T07:08:39.450Z,14.55
2018-12-09T07:09:13.317Z,17.07
2018-12-09T07:09:47.174Z,14.60
2018-12-09T07:10:21.141Z,12.15
2018-12-09T07:10:55.322Z,15.25
2018-12-09T07:11:29.359Z,14.83
2018-12-09T07:12:03.342Z,17.62
2018-12-09T07:12:37.583Z,18.10
2018-12-09T07:13:11.486Z,14.40
2018-12-09T07:13:45.246Z,14.43
2018-12-09T07:14:19.888Z,16.85
2018-12-09T07:14:53.649Z,16.23
2018-12-09T07:15:27.934Z,18.17
2018-12-09T07:16:02.149Z,15.90
2018-12-09T07:16:36.178Z,12.53
2018-12-09T07:17:10.115Z,16.90
2018-12-09T07:17:44.264Z,13.55
2018-12-09T07:18:18.723Z,15.25
2018-12-09T07:18:52.918Z,16.95
2018-12-09T07:19:27.193Z,14.35
2018-12-09T07:20:08.685Z,15.95
2018-12-09T07:20:42.762Z,24.20
2018-12-09T07:21:16.813Z,14.68
2018-12-09T07:21:50.751Z,17.10
2018-12-09T07:22:24.754Z,22.05
2018-12-09T07:22:58.699Z,15.18
2018-12-09T07:23:32.781Z,19.23
2018-12-09T07:24:06.807Z,18.30
2018-12-09T07:24:40.747Z,14.47
2018-12-09T07:25:14.638Z,14.87
2018-12-09T07:25:48.535Z,18.30
2018-12-09T07:26:22.591Z,15.88
2018-12-09T07:26:56.559Z,19.73
2018-12-09T07:27:30.377Z,18.00
2018-12-09T07:28:04.313Z,18.35
2018-12-09T07:28:38.166Z,21.10